createdAt,value
2022-12-12T00:00:55.217Z,38.25
2022-12-12T00:02:01.318Z,33.36
2022-12-12T00:03:08.306Z,33.83
2022-12-12T00:04:15.944Z,35.12
2022-12-12T00:05:21.294Z,34.75
2022-12-12T00:06:28.730Z,35.27
2022-12-12T00:07:32.038Z,34.83
2022-12-12T00:08:38.128Z,33.87
2022-12-12T00:09:44.895Z,34.68
2022-12-12T00:10:48.366Z,34.36
2022-12-12T00:11:54.323Z,33.94
2022-12-12T00:12:57.703Z,35.02
2022-12-12T00:14:06.938Z,33.59
2022-12-12T00:15:11.961Z,35.18
2022-12-12T00:16:18.822Z,35.39
2022-12-12T00:17:22.225Z,36.44
2022-12-12T00:18:28.337Z,37.34
2022-12-12T00:19:31.844Z,35.61
2022-12-12T00:20:38.553Z,34.31
2022-12-12T00:21:41.974Z,34.36
2022-12-12T00:22:47.892Z,35.14
2022-12-12T00:23:52.723Z,35.28
2022-12-12T00:24:58.704Z,34.69
2022-12-12T00:26:08.828Z,36.14
2022-12-12T00:27:14.772Z,35.43
2022-12-12T00:28:18.277Z,34.35
2022-12-12T00:29:26.783Z,33.33
2022-12-12T00:30:30.104Z,34.37
2022-12-12T00:31:37.170Z,34.90
2022-12-12T00:32:40.622Z,37.35
2022-12-12T00:33:50.359Z,36.28
2022-12-12T00:34:53.870Z,34.92
2022-12-12T00:35:59.801Z,33.09
2022-12-12T00:37:06.637Z,33.14
2022-12-12T00:38:10.250Z,31.22
2022-12-12T00:39:18.450Z,31.22
2022-12-12T00:40:22.680Z,30.36
2022-12-12T00:41:29.705Z,29.90
2022-12-12T00:42:36.613Z,29.00
2022-12-12T00:43:40.005Z,29.88
2022-12-12T00:44:48.572Z,29.20
2022-12-12T00:45:52.531Z,27.81
2022-12-12T00:46:58.479Z,28.11
2022-12-12T00:48:02.659Z,28.12
2022-12-12T00:49:09.430Z,29.68
2022-12-12T00:50:13.950Z,29.18
2022-12-12T00:51:23.373Z,28.61
2022-12-12T00:52:29.309Z,28.73
2022-12-12T00:53:33.417Z,27.79
2022-12-12T00:54:39.317Z,28.30
2022-12-12T00:55:42.955Z,27.38
2022-12-12T00:56:48.923Z,28.32
2022-12-12T00:57:52.743Z,28.30
2022-12-12T00:58:59.518Z,28.07
2022-12-12T01:00:09.271Z,27.80
2022-12-12T01:01:17.220Z,29.03
2022-12-12T01:02:28.144Z,29.76
2022-12-12T01:03:33.970Z,29.93
2022-12-12T01:04:40.756Z,28.42
2022-12-12T01:05:44.265Z,28.56
2022-12-12T01:06:50.371Z,28.13
2022-12-12T01:07:54.410Z,27.66
2022-12-12T01:09:00.626Z,27.60
2022-12-12T01:10:07.434Z,27.99
2022-12-12T01:11:16.944Z,26.58
2022-12-12T01:12:20.250Z,26.85
2022-12-12T01:13:27.220Z,26.21
2022-12-12T01:14:33.303Z,26.71
2022-12-12T01:15:40.058Z,25.66
2022-12-12T01:16:46.015Z,26.06
2022-12-12T01:17:49.440Z,25.11
2022-12-12T01:18:55.966Z,26.66
2022-12-12T01:19:59.260Z,25.73
2022-12-12T01:21:07.175Z,25.26
2022-12-12T01:22:10.659Z,24.69
2022-12-12T01:23:17.858Z,25.66
2022-12-12T01:24:21.302Z,25.06
2022-12-12T01:25:27.568Z,25.21
2022-12-12T01:26:31.747Z,24.39
2022-12-12T01:27:37.672Z,23.10
2022-12-12T01:28:42.809Z,23.77
2022-12-12T01:29:48.592Z,23.03
2022-12-12T01:30:54.607Z,22.51
2022-12-12T01:32:01.343Z,22.74
2022-12-12T01:33:04.851Z,23.65
2022-12-12T01:34:11.309Z,23.00
2022-12-12T01:35:15.262Z,22.46
2022-12-12T01:36:25.434Z,23.25
2022-12-12T01:37:29.611Z,22.24
2022-12-12T01:38:35.701Z,22.43
2022-12-12T01:39:38.948Z,22.68
2022-12-12T01:40:45.256Z,22.72
2022-12-12T01:41:48.615Z,23.26
2022-12-12T01:42:56.700Z,22.05
2022-12-12T01:44:06.828Z,21.85
2022-12-12T01:46:09.235Z,23.28
2022-12-12T01:47:21.862Z,25.78
2022-12-12T01:48:34.513Z,24.53
2022-12-12T01:49:40.720Z,24.21
2022-12-12T01:50:45.974Z,24.26
2022-12-12T01:51:58.708Z,23.54
2022-12-12T01:53:02.154Z,22.16
2022-12-12T01:54:19.003Z,21.55
2022-12-12T01:55:28.619Z,22.59
2022-12-12T01:56:35.066Z,22.79
2022-12-12T01:57:50.102Z,22.98
2022-12-12T01:58:56.894Z,22.63
2022-12-12T02:00:10.397Z,23.57
2022-12-12T02:01:17.008Z,23.58
2022-12-12T02:02:25.602Z,24.19
2022-12-12T02:03:29.448Z,23.80
2022-12-12T02:04:36.062Z,24.19
2022-12-12T02:05:48.381Z,24.02
2022-12-12T02:06:55.991Z,25.11
2022-12-12T02:08:03.868Z,24.95
2022-12-12T02:09:15.492Z,25.88
2022-12-12T02:10:19.022Z,24.80
2022-12-12T02:11:25.931Z,23.42
2022-12-12T02:12:29.372Z,24.85
2022-12-12T02:13:38.797Z,23.93
2022-12-12T02:14:51.331Z,23.39
2022-12-12T02:16:10.377Z,24.76
2022-12-12T02:18:12.397Z,24.02
2022-12-12T02:20:03.515Z,24.55
2022-12-12T02:21:24.552Z,23.69
2022-12-12T02:23:16.946Z,24.56
2022-12-12T02:25:12.630Z,24.49
2022-12-12T02:27:13.019Z,24.24
2022-12-12T02:29:10.943Z,25.03
2022-12-12T02:30:24.673Z,23.68
2022-12-12T02:31:41.078Z,24.18
2022-12-12T02:33:13.593Z,23.95
2022-12-12T02:34:40.116Z,24.44
2022-12-12T02:36:15.968Z,24.22
2022-12-12T02:37:33.326Z,23.74
2022-12-12T02:38:56.164Z,22.87
2022-12-12T02:40:21.242Z,23.26
2022-12-12T02:41:39.490Z,23.60
2022-12-12T02:42:53.299Z,22.33
2022-12-12T02:44:17.618Z,22.00
2022-12-12T02:45:36.579Z,23.01
2022-12-12T02:46:59.376Z,22.84
2022-12-12T02:48:17.259Z,22.41
2022-12-12T02:49:34.541Z,23.97
2022-12-12T02:50:44.007Z,22.50
2022-12-12T02:51:54.642Z,23.05
2022-12-12T02:53:00.529Z,23.73
2022-12-12T02:54:16.182Z,24.58
2022-12-12T02:55:21.568Z,24.14
2022-12-12T02:56:53.271Z,22.66
2022-12-12T02:57:56.865Z,24.12
2022-12-12T02:59:02.823Z,25.07
2022-12-12T03:00:13.755Z,23.73
2022-12-12T03:01:45.017Z,24.02
2022-12-12T03:03:43.859Z,25.40
2022-12-12T03:05:28.878Z,24.60
2022-12-12T03:07:13.383Z,24.49
2022-12-12T03:08:45.088Z,23.67
2022-12-12T03:10:06.060Z,23.56
2022-12-12T03:11:21.744Z,22.74
2022-12-12T03:12:43.207Z,24.52
2022-12-12T03:13:58.080Z,23.18
2022-12-12T03:15:17.152Z,23.10
2022-12-12T03:16:29.837Z,24.90
2022-12-12T03:17:49.269Z,25.10
2022-12-12T03:19:09.279Z,26.24
2022-12-12T03:20:25.606Z,25.40
2022-12-12T03:21:44.555Z,26.11
2022-12-12T03:23:00.201Z,25.35
2022-12-12T03:24:14.216Z,24.13
2022-12-12T03:25:29.908Z,24.71
2022-12-12T03:26:50.490Z,23.32
2022-12-12T03:28:06.636Z,23.80
2022-12-12T03:29:20.861Z,22.64
2022-12-12T03:30:25.142Z,23.54
2022-12-12T03:31:37.913Z,23.01
2022-12-12T03:32:56.095Z,23.98
2022-12-12T03:34:10.228Z,24.41
2022-12-12T03:35:28.579Z,24.39
2022-12-12T03:36:41.134Z,24.01
2022-12-12T03:37:54.788Z,23.87
2022-12-12T03:39:11.925Z,24.96
2022-12-12T03:40:25.533Z,23.67
2022-12-12T03:41:43.263Z,23.11
2022-12-12T03:42:58.012Z,25.23
2022-12-12T03:44:15.153Z,28.79
2022-12-12T03:45:30.749Z,24.02
2022-12-12T03:46:49.449Z,24.28
2022-12-12T03:48:04.585Z,23.38
2022-12-12T03:49:23.300Z,23.28
2022-12-12T03:50:37.261Z,24.36
2022-12-12T03:51:53.160Z,23.05
2022-12-12T03:53:07.442Z,24.78
2022-12-12T03:54:27.004Z,24.12
2022-12-12T03:55:44.276Z,23.63
2022-12-12T03:57:00.332Z,23.24
2022-12-12T03:58:14.164Z,23.80
2022-12-12T03:59:29.391Z,23.56
2022-12-12T04:00:40.189Z,22.98
2022-12-12T04:02:00.829Z,24.21
2022-12-12T04:03:19.020Z,23.33
2022-12-12T04:04:39.800Z,23.31
2022-12-12T04:06:14.138Z,24.13
2022-12-12T04:07:31.047Z,22.34
2022-12-12T04:08:36.057Z,23.08
2022-12-12T04:09:55.613Z,23.42
2022-12-12T04:11:26.344Z,25.00
2022-12-12T04:12:56.773Z,23.33
2022-12-12T04:14:24.256Z,24.21
2022-12-12T04:16:00.418Z,24.25
2022-12-12T04:17:09.287Z,25.19
2022-12-12T04:18:28.062Z,24.81
2022-12-12T04:19:58.061Z,24.63
2022-12-12T04:21:35.460Z,23.96
2022-12-12T04:23:13.273Z,23.66
2022-12-12T04:24:33.526Z,23.69
2022-12-12T04:26:09.807Z,24.13
2022-12-12T04:27:28.711Z,23.73
2022-12-12T04:28:36.919Z,23.69
2022-12-12T04:29:56.724Z,24.03
2022-12-12T04:31:06.859Z,23.77
2022-12-12T04:32:25.675Z,23.30
2022-12-12T04:33:42.375Z,25.03
2022-12-12T04:35:01.765Z,25.93
2022-12-12T04:36:10.561Z,25.08
2022-12-12T04:37:25.801Z,25.21
2022-12-12T04:38:31.142Z,25.52
2022-12-12T04:39:46.402Z,24.61
2022-12-12T04:40:59.459Z,24.38
2022-12-12T04:42:13.612Z,24.12
2022-12-12T04:43:23.016Z,25.26
2022-12-12T04:44:36.284Z,24.08
2022-12-12T04:45:45.518Z,23.38
2022-12-12T04:46:59.617Z,23.92
2022-12-12T04:48:09.225Z,23.92
2022-12-12T04:49:22.571Z,23.97
2022-12-12T04:50:35.112Z,22.88
2022-12-12T04:51:49.001Z,24.07
2022-12-12T04:53:01.226Z,24.62
2022-12-12T04:54:21.607Z,24.46
2022-12-12T04:55:34.468Z,24.34
2022-12-12T04:56:46.891Z,24.51
2022-12-12T04:57:57.747Z,24.00
2022-12-12T04:59:05.958Z,24.44
2022-12-12T05:00:17.443Z,23.87
2022-12-12T05:01:39.653Z,25.55
2022-12-12T05:02:58.921Z,27.00
2022-12-12T05:04:14.126Z,25.05
2022-12-12T05:05:35.211Z,25.04
2022-12-12T05:06:46.662Z,25.79
2022-12-12T05:08:01.046Z,26.44
2022-12-12T05:09:07.040Z,29.88
2022-12-12T05:10:19.967Z,29.54
2022-12-12T05:11:23.853Z,30.03
2022-12-12T05:12:30.254Z,29.99
2022-12-12T05:13:36.997Z,29.71
2022-12-12T05:14:44.000Z,29.75
2022-12-12T05:15:53.497Z,27.68
2022-12-12T05:17:09.722Z,27.99
2022-12-12T05:18:13.639Z,28.71
2022-12-12T05:19:19.516Z,34.27
2022-12-12T05:20:23.647Z,35.56
2022-12-12T05:21:33.069Z,31.81
2022-12-12T05:22:36.332Z,31.61
2022-12-12T05:23:42.336Z,32.02
2022-12-12T05:24:45.659Z,32.19
2022-12-12T05:25:52.532Z,31.36
2022-12-12T05:26:55.966Z,30.92
2022-12-12T05:28:02.273Z,31.89
2022-12-12T05:29:08.626Z,33.06
2022-12-12T05:30:16.173Z,31.01
2022-12-12T05:31:20.654Z,31.65
2022-12-12T05:32:26.527Z,32.10
2022-12-12T05:33:29.764Z,33.66
2022-12-12T05:34:35.795Z,35.60
2022-12-12T05:35:40.577Z,36.79
2022-12-12T05:36:50.050Z,37.12
2022-12-12T05:37:53.563Z,37.97
2022-12-12T05:38:59.540Z,37.12
2022-12-12T05:40:04.895Z,36.03
2022-12-12T05:41:12.355Z,35.83
2022-12-12T05:42:19.146Z,35.30
2022-12-12T05:43:22.386Z,36.16
2022-12-12T05:44:28.413Z,42.46
2022-12-12T05:45:31.733Z,35.82
2022-12-12T05:46:37.664Z,41.13
2022-12-12T05:47:44.567Z,46.75
2022-12-12T05:48:50.810Z,45.82
2022-12-12T05:49:57.864Z,39.03
2022-12-12T05:51:03.017Z,38.85
2022-12-12T05:52:11.597Z,41.07
2022-12-12T05:53:16.158Z,39.23
2022-12-12T05:54:22.553Z,39.60
2022-12-12T05:55:27.472Z,40.83
2022-12-12T05:56:33.361Z,37.93
2022-12-12T05:57:36.861Z,39.61
2022-12-12T05:58:45.214Z,40.81
2022-12-12T05:59:49.233Z,47.53
2022-12-12T06:01:01.638Z,44.61
2022-12-12T06:02:12.076Z,37.95
2022-12-12T06:03:17.162Z,41.06
2022-12-12T06:04:25.342Z,38.89
2022-12-12T06:05:29.423Z,36.68
2022-12-12T06:06:35.347Z,36.64
2022-12-12T06:07:42.276Z,39.24
2022-12-12T06:08:48.217Z,44.79
2022-12-12T06:09:52.557Z,44.90
2022-12-12T06:10:58.633Z,40.18
2022-12-12T06:12:02.024Z,40.14
2022-12-12T06:13:08.375Z,39.37
2022-12-12T06:14:14.344Z,42.00
2022-12-12T06:15:19.157Z,43.13
2022-12-12T06:16:25.181Z,40.88
2022-12-12T06:17:33.154Z,36.44
2022-12-12T06:18:40.664Z,39.38
2022-12-12T06:19:44.932Z,44.98
2022-12-12T06:20:53.434Z,52.55
2022-12-12T06:21:57.134Z,51.51
2022-12-12T06:23:05.905Z,53.38
2022-12-12T06:24:12.677Z,44.57
2022-12-12T06:25:16.211Z,41.00
2022-12-12T06:26:25.226Z,37.69
2022-12-12T06:27:29.126Z,36.01
2022-12-12T06:28:36.332Z,36.46
2022-12-12T06:29:39.898Z,35.18
2022-12-12T06:30:46.074Z,37.80
2022-12-12T06:31:53.561Z,42.10
2022-12-12T06:33:00.529Z,41.94
2022-12-12T06:34:07.147Z,39.26
2022-12-12T06:35:12.834Z,41.67
2022-12-12T06:36:25.749Z,37.34
2022-12-12T06:37:32.782Z,35.66
2022-12-12T06:38:42.943Z,33.29
2022-12-12T06:39:47.285Z,31.82
2022-12-12T06:40:53.238Z,33.04
2022-12-12T06:41:59.740Z,33.67
2022-12-12T06:43:06.573Z,33.95
2022-12-12T06:44:10.135Z,33.72
2022-12-12T06:45:16.335Z,34.07
2022-12-12T06:46:26.982Z,33.98
2022-12-12T06:47:30.424Z,35.98
2022-12-12T06:48:39.178Z,36.58
2022-12-12T06:49:45.265Z,35.83
2022-12-12T06:50:48.720Z,32.71
2022-12-12T06:51:54.759Z,31.75
2022-12-12T06:53:00.639Z,34.53
2022-12-12T06:54:10.779Z,34.86
2022-12-12T06:55:14.563Z,33.75
2022-12-12T06:56:26.103Z,33.44
2022-12-12T06:57:33.033Z,35.04
2022-12-12T06:58:40.084Z,37.67
2022-12-12T06:59:48.307Z,39.86
2022-12-12T07:00:54.255Z,38.81
2022-12-12T07:02:02.647Z,39.11
2022-12-12T07:03:09.188Z,43.75
2022-12-12T07:04:16.828Z,43.24
2022-12-12T07:05:24.807Z,36.59
2022-12-12T07:06:28.291Z,35.69
2022-12-12T07:07:34.553Z,34.68
2022-12-12T07:08:39.252Z,35.55
2022-12-12T07:09:48.301Z,34.88
2022-12-12T07:10:52.697Z,35.11
2022-12-12T07:11:59.072Z,38.42
2022-12-12T07:13:02.368Z,39.77
2022-12-12T07:14:08.957Z,40.66
2022-12-12T07:15:15.583Z,42.06
2022-12-12T07:16:23.752Z,40.84
2022-12-12T07:17:29.854Z,40.77
2022-12-12T07:18:36.223Z,40.60
2022-12-12T07:19:42.277Z,40.12
2022-12-12T07:20:47.245Z,42.51
2022-12-12T07:21:53.910Z,43.38
2022-12-12T07:22:57.592Z,43.22
2022-12-12T07:24:03.590Z,45.19
2022-12-12T07:25:12.801Z,55.29
2022-12-12T07:26:19.817Z,50.22
2022-12-12T07:27:26.680Z,46.35
2022-12-12T07:28:30.134Z,50.40
2022-12-12T07:29:36.341Z,56.58
2022-12-12T07:30:43.967Z,55.49
2022-12-12T07:31:47.677Z,56.32
2022-12-12T07:32:54.884Z,54.33
2022-12-12T07:33:58.880Z,43.60
2022-12-12T07:35:05.016Z,42.89
2022-12-12T07:36:09.090Z,46.21
2022-12-12T07:37:15.172Z,44.92
2022-12-12T07:38:19.406Z,39.25
2022-12-12T07:39:25.352Z,37.35
2022-12-12T07:40:36.002Z,45.51
2022-12-12T07:41:42.036Z,46.02
2022-12-12T07:42:45.455Z,48.70
2022-12-12T07:43:53.438Z,42.49
2022-12-12T07:44:59.544Z,37.57
2022-12-12T07:46:03.015Z,38.03
2022-12-12T07:47:10.707Z,52.70
2022-12-12T07:48:15.404Z,68.74
2022-12-12T07:49:22.108Z,51.52
2022-12-12T07:50:26.177Z,47.06
2022-12-12T07:51:33.304Z,54.61
2022-12-12T07:52:36.784Z,44.09
2022-12-12T07:53:43.221Z,46.67
2022-12-12T07:54:50.121Z,62.03
2022-12-12T07:55:56.891Z,70.33
2022-12-12T07:57:03.205Z,61.48
2022-12-12T07:58:06.805Z,61.93
2022-12-12T07:59:12.847Z,64.77
2022-12-12T08:00:19.907Z,58.97
2022-12-12T08:01:30.470Z,46.14
2022-12-12T08:02:34.066Z,47.66
2022-12-12T08:03:40.170Z,49.10
2022-12-12T08:04:46.297Z,49.70
2022-12-12T08:05:50.613Z,46.24
2022-12-12T08:07:02.720Z,49.25
2022-12-12T08:08:09.540Z,45.38
2022-12-12T08:09:15.473Z,38.04
2022-12-12T08:10:19.050Z,37.08
2022-12-12T08:11:29.622Z,36.58
2022-12-12T08:12:33.723Z,40.75
2022-12-12T08:13:43.119Z,40.57
2022-12-12T08:14:49.281Z,42.76
2022-12-12T08:15:55.239Z,42.75
2022-12-12T08:17:03.211Z,43.34
2022-12-12T08:18:06.607Z,43.57
2022-12-12T08:19:12.554Z,45.81
2022-12-12T08:20:19.916Z,51.87
2022-12-12T08:21:27.387Z,63.16
2022-12-12T08:22:31.557Z,67.30
2022-12-12T08:23:37.550Z,65.67
2022-12-12T08:24:43.950Z,58.21
2022-12-12T08:25:47.380Z,48.35
2022-12-12T08:26:56.109Z,46.10
2022-12-12T08:28:02.923Z,44.15
2022-12-12T08:29:09.224Z,43.57
2022-12-12T08:30:16.591Z,41.77
2022-12-12T08:31:25.150Z,40.10
2022-12-12T08:32:31.287Z,44.81
2022-12-12T08:33:39.245Z,38.90
2022-12-12T08:34:45.148Z,42.76
2022-12-12T08:35:51.102Z,54.72
2022-12-12T08:36:57.177Z,53.34
2022-12-12T08:38:04.063Z,50.36
2022-12-12T08:39:16.185Z,43.80
2022-12-12T08:40:22.223Z,43.58
2022-12-12T08:41:28.554Z,45.33
2022-12-12T08:42:37.059Z,46.10
2022-12-12T08:43:45.759Z,49.55
2022-12-12T08:44:53.300Z,46.17
2022-12-12T08:46:03.939Z,40.88
2022-12-12T08:47:10.898Z,36.51
2022-12-12T08:48:14.335Z,37.71
2022-12-12T08:49:20.297Z,37.60
2022-12-12T08:50:29.848Z,39.83
2022-12-12T08:51:36.159Z,37.32
2022-12-12T08:52:42.397Z,36.37
2022-12-12T08:53:49.378Z,33.38
2022-12-12T08:54:52.822Z,34.96
2022-12-12T08:55:59.719Z,33.96
2022-12-12T08:57:05.814Z,33.02
2022-12-12T08:58:14.294Z,33.38
2022-12-12T08:59:22.137Z,35.50
2022-12-12T09:00:28.092Z,33.12
2022-12-12T09:01:35.322Z,33.70
2022-12-12T09:02:41.614Z,32.71
2022-12-12T09:03:48.333Z,35.01
2022-12-12T09:04:54.210Z,34.92
2022-12-12T09:06:00.624Z,33.96
2022-12-12T09:07:08.934Z,34.90
2022-12-12T09:08:15.854Z,36.94
2022-12-12T09:09:21.966Z,38.25
2022-12-12T09:10:28.549Z,36.71
2022-12-12T09:11:34.457Z,38.11
2022-12-12T09:12:42.042Z,39.03
2022-12-12T09:13:50.992Z,36.13
2022-12-12T09:14:56.896Z,37.73
2022-12-12T09:16:00.373Z,38.50
2022-12-12T09:17:06.876Z,38.02
2022-12-12T09:18:13.654Z,38.84
2022-12-12T09:19:20.327Z,38.86
2022-12-12T09:20:26.310Z,41.17
2022-12-12T09:21:29.837Z,39.14
2022-12-12T09:22:35.799Z,37.89
2022-12-12T09:23:42.782Z,36.06
2022-12-12T09:24:49.410Z,36.47
2022-12-12T09:25:54.260Z,37.74
2022-12-12T09:27:00.297Z,37.59
2022-12-12T09:28:06.408Z,38.13
2022-12-12T09:29:16.696Z,37.24
2022-12-12T09:30:23.068Z,37.02
2022-12-12T09:31:29.606Z,34.49
2022-12-12T09:32:35.580Z,33.30
2022-12-12T09:33:43.488Z,32.25
2022-12-12T09:34:50.360Z,32.39
2022-12-12T09:35:59.995Z,33.66
2022-12-12T09:37:06.143Z,36.65
2022-12-12T09:38:14.968Z,49.02
2022-12-12T09:39:21.947Z,46.34
2022-12-12T09:40:39.249Z,43.37
2022-12-12T09:41:45.249Z,45.37
2022-12-12T09:42:54.924Z,49.68
2022-12-12T09:44:06.780Z,52.89
2022-12-12T09:45:15.991Z,49.26
2022-12-12T09:46:37.817Z,49.25
2022-12-12T09:47:50.697Z,58.78
2022-12-12T09:49:14.195Z,51.72
2022-12-12T09:50:32.628Z,47.12
2022-12-12T09:51:38.067Z,55.85
2022-12-12T09:52:45.552Z,62.32
2022-12-12T09:53:51.809Z,53.65
2022-12-12T09:54:58.203Z,46.85
2022-12-12T09:56:16.882Z,36.78
2022-12-12T09:57:36.512Z,46.61
2022-12-12T09:58:57.223Z,39.76
2022-12-12T10:00:14.174Z,38.82
2022-12-12T10:01:34.664Z,42.35
2022-12-12T10:03:07.046Z,46.22
2022-12-12T10:04:35.161Z,49.18
2022-12-12T10:06:13.516Z,50.94
2022-12-12T10:07:30.448Z,40.46
2022-12-12T10:08:51.045Z,39.27
2022-12-12T10:10:16.090Z,37.49
2022-12-12T10:11:44.091Z,41.15
2022-12-12T10:12:53.188Z,43.91
2022-12-12T10:14:08.110Z,43.08
2022-12-12T10:15:32.834Z,42.77
2022-12-12T10:16:44.599Z,40.09
2022-12-12T10:17:52.668Z,40.73
2022-12-12T10:19:12.200Z,38.27
2022-12-12T10:20:25.112Z,47.47
2022-12-12T10:21:37.655Z,46.25
2022-12-12T10:22:56.688Z,45.50
2022-12-12T10:24:22.327Z,40.74
2022-12-12T10:25:44.192Z,36.88
2022-12-12T10:26:47.672Z,39.18
2022-12-12T10:27:59.251Z,39.43
2022-12-12T10:29:15.594Z,35.92
2022-12-12T10:30:24.296Z,37.74
2022-12-12T10:31:51.376Z,40.55
2022-12-12T10:33:22.063Z,37.33
2022-12-12T10:34:55.273Z,34.77
2022-12-12T10:36:20.759Z,33.71
2022-12-12T10:37:47.325Z,34.02
2022-12-12T10:39:17.326Z,39.70
2022-12-12T10:40:52.167Z,43.79
2022-12-12T10:42:12.643Z,43.90
2022-12-12T10:43:26.762Z,41.80
2022-12-12T10:45:05.610Z,38.59
2022-12-12T10:46:31.354Z,36.45
2022-12-12T10:47:40.320Z,37.36
2022-12-12T10:48:47.633Z,39.65
2022-12-12T10:50:10.051Z,42.35
2022-12-12T10:51:26.046Z,48.17
2022-12-12T10:52:31.919Z,46.58
2022-12-12T10:53:38.928Z,50.25
2022-12-12T10:54:51.335Z,48.60
2022-12-12T10:56:03.793Z,41.70
2022-12-12T10:57:20.054Z,36.80
2022-12-12T10:58:27.916Z,34.21
2022-12-12T10:59:33.867Z,36.65
2022-12-12T11:00:44.243Z,35.94
2022-12-12T11:02:11.117Z,36.49
2022-12-12T11:03:32.063Z,36.93
2022-12-12T11:04:40.249Z,44.06
2022-12-12T11:05:46.273Z,45.78
2022-12-12T11:06:56.529Z,37.09
2022-12-12T11:08:08.374Z,38.42
2022-12-12T11:09:23.529Z,45.82
2022-12-12T11:10:34.750Z,46.55
2022-12-12T11:11:40.876Z,42.36
2022-12-12T11:12:44.143Z,40.09
2022-12-12T11:13:56.851Z,41.55
2022-12-12T11:15:13.897Z,47.19
2022-12-12T11:16:26.211Z,45.77
2022-12-12T11:17:34.270Z,47.57
2022-12-12T11:18:42.919Z,42.17
2022-12-12T11:19:49.644Z,43.09
2022-12-12T11:21:12.572Z,42.42
2022-12-12T11:22:19.517Z,39.66
2022-12-12T11:23:31.935Z,40.55
2022-12-12T11:24:45.534Z,36.83
2022-12-12T11:26:01.051Z,46.73
2022-12-12T11:27:10.840Z,46.37
2022-12-12T11:28:28.720Z,50.94
2022-12-12T11:29:49.373Z,46.24
2022-12-12T11:30:59.672Z,42.94
2022-12-12T11:32:08.322Z,41.41
2022-12-12T11:33:26.301Z,39.26
2022-12-12T11:34:41.998Z,39.65
2022-12-12T11:35:49.570Z,37.33
2022-12-12T11:36:58.432Z,36.38
2022-12-12T11:38:10.728Z,33.77
2022-12-12T11:39:27.372Z,34.97
2022-12-12T11:40:37.781Z,34.73
2022-12-12T11:42:04.660Z,32.96
2022-12-12T11:43:32.422Z,32.78
2022-12-12T11:44:42.001Z,34.22
2022-12-12T11:46:05.657Z,33.73
2022-12-12T11:47:28.651Z,29.66
2022-12-12T11:48:59.865Z,29.59
2022-12-12T11:50:23.661Z,28.08
2022-12-12T11:51:40.409Z,27.82
2022-12-12T11:52:43.991Z,29.17
2022-12-12T11:53:50.044Z,31.78
2022-12-12T11:54:57.725Z,33.66
2022-12-12T11:56:32.624Z,32.75
2022-12-12T11:58:09.375Z,32.20
2022-12-12T12:00:00.369Z,29.81
2022-12-12T12:01:20.477Z,29.47
2022-12-12T12:03:07.470Z,27.99
2022-12-12T12:04:42.241Z,30.21
2022-12-12T12:06:16.490Z,28.92
2022-12-12T12:07:51.470Z,29.84
2022-12-12T12:09:22.045Z,29.17
2022-12-12T12:10:53.899Z,29.97
2022-12-12T12:12:13.265Z,32.24
2022-12-12T12:13:45.103Z,34.37
2022-12-12T12:15:21.894Z,31.48
2022-12-12T12:16:48.788Z,30.49
2022-12-12T12:18:34.613Z,29.59
2022-12-12T12:19:59.383Z,30.19
2022-12-12T12:21:31.709Z,32.45
2022-12-12T12:22:59.308Z,32.76
2022-12-12T12:24:58.079Z,33.00
2022-12-12T12:26:16.335Z,34.06
2022-12-12T12:27:39.753Z,33.48
2022-12-12T12:29:40.031Z,31.54
2022-12-12T12:31:03.441Z,30.81
2022-12-12T12:32:28.956Z,32.17
2022-12-12T12:34:04.833Z,34.33
2022-12-12T12:35:33.011Z,33.00
2022-12-12T12:37:05.034Z,31.65
2022-12-12T12:38:29.548Z,29.47
2022-12-12T12:40:10.620Z,27.97
2022-12-12T12:41:43.027Z,27.75
2022-12-12T12:43:23.747Z,27.55
2022-12-12T12:44:47.281Z,30.19
2022-12-12T12:46:04.114Z,32.22
2022-12-12T12:47:29.679Z,31.21
2022-12-12T12:48:44.094Z,29.60
2022-12-12T12:50:02.188Z,30.21
2022-12-12T12:51:21.809Z,33.13
2022-12-12T12:52:41.902Z,30.98
2022-12-12T12:53:58.078Z,32.36
2022-12-12T12:55:05.908Z,30.52
2022-12-12T12:56:26.878Z,30.71
2022-12-12T12:57:42.136Z,30.19
2022-12-12T12:58:53.089Z,31.55
2022-12-12T13:00:07.023Z,32.19
2022-12-12T13:01:24.205Z,31.59
2022-12-12T13:02:44.195Z,34.62
2022-12-12T13:04:04.353Z,35.89
2022-12-12T13:05:22.364Z,39.50
2022-12-12T13:06:50.681Z,37.66
2022-12-12T13:08:16.628Z,34.81
2022-12-12T13:09:37.205Z,32.23
2022-12-12T13:10:52.558Z,34.30
2022-12-12T13:12:13.444Z,36.34
2022-12-12T13:13:30.801Z,38.29
2022-12-12T13:14:48.565Z,37.10
2022-12-12T13:16:04.846Z,44.49
2022-12-12T13:17:33.961Z,44.22
2022-12-12T13:18:46.109Z,37.93
2022-12-12T13:19:59.003Z,39.02
2022-12-12T13:21:18.667Z,40.51
2022-12-12T13:22:43.807Z,43.67
2022-12-12T13:24:05.050Z,42.73
2022-12-12T13:25:24.843Z,40.37
2022-12-12T13:26:47.227Z,34.60
2022-12-12T13:27:58.874Z,35.78
2022-12-12T13:29:31.035Z,36.75
2022-12-12T13:31:01.768Z,39.23
2022-12-12T13:32:45.846Z,33.48
2022-12-12T13:34:04.524Z,33.54
2022-12-12T13:35:18.294Z,34.44
2022-12-12T13:36:30.421Z,35.19
2022-12-12T13:37:47.899Z,38.03
2022-12-12T13:39:03.585Z,37.88
2022-12-12T13:40:25.869Z,34.66
2022-12-12T13:42:01.487Z,37.74
2022-12-12T13:43:10.548Z,35.93
2022-12-12T13:44:50.821Z,34.29
2022-12-12T13:45:54.742Z,32.39
2022-12-12T13:47:00.927Z,31.96
2022-12-12T13:48:07.386Z,31.63
2022-12-12T13:49:31.575Z,32.75
2022-12-12T13:50:38.532Z,32.49
2022-12-12T13:51:44.507Z,31.15
2022-12-12T13:53:23.197Z,30.10
2022-12-12T13:55:22.175Z,29.01
2022-12-12T13:56:39.389Z,28.85
2022-12-12T13:58:34.988Z,30.26
2022-12-12T14:00:32.234Z,28.78
2022-12-12T14:01:41.020Z,27.16
2022-12-12T14:03:09.238Z,27.16
2022-12-12T14:04:32.119Z,27.50
2022-12-12T14:05:43.623Z,27.80
2022-12-12T14:07:05.277Z,26.68
2022-12-12T14:08:30.760Z,26.57
2022-12-12T14:09:50.092Z,26.84
2022-12-12T14:11:05.296Z,26.47
2022-12-12T14:12:27.506Z,27.03
2022-12-12T14:13:47.586Z,27.93
2022-12-12T14:15:03.808Z,27.41
2022-12-12T14:16:24.937Z,27.40
2022-12-12T14:17:42.094Z,27.32
2022-12-12T14:19:06.781Z,26.46
2022-12-12T14:20:33.647Z,27.25
2022-12-12T14:21:51.025Z,27.73
2022-12-12T14:23:31.249Z,28.56
2022-12-12T14:25:07.663Z,28.33
2022-12-12T14:26:56.202Z,30.10
2022-12-12T14:28:22.286Z,27.48
2022-12-12T14:29:32.326Z,27.22
2022-12-12T14:30:59.965Z,28.08
2022-12-12T14:32:38.640Z,28.20
2022-12-12T14:34:23.061Z,28.09
2022-12-12T14:35:44.870Z,28.95
2022-12-12T14:37:38.187Z,28.73
2022-12-12T14:39:07.509Z,29.69
2022-12-12T14:40:24.973Z,31.01
2022-12-12T14:41:41.571Z,31.94
2022-12-12T14:43:19.938Z,32.82
2022-12-12T14:44:36.394Z,35.86
2022-12-12T14:45:59.155Z,37.36
2022-12-12T14:47:11.365Z,35.60
2022-12-12T14:48:26.044Z,32.85
2022-12-12T14:49:29.391Z,31.03
2022-12-12T14:50:35.476Z,31.38
2022-12-12T14:51:43.261Z,32.49
2022-12-12T14:52:49.298Z,30.76
2022-12-12T14:53:59.072Z,29.62
2022-12-12T14:55:05.681Z,29.43
2022-12-12T14:56:16.421Z,28.62
2022-12-12T14:57:27.604Z,29.56
2022-12-12T14:58:41.977Z,29.57
2022-12-12T14:59:48.569Z,29.42
2022-12-12T15:00:57.241Z,31.12
2022-12-12T15:02:16.926Z,31.30
2022-12-12T15:03:41.736Z,30.51
2022-12-12T15:04:54.508Z,31.62
2022-12-12T15:06:31.865Z,31.63
2022-12-12T15:07:41.360Z,33.39
2022-12-12T15:08:45.741Z,32.73
2022-12-12T15:09:52.698Z,34.31
2022-12-12T15:10:59.336Z,34.08
2022-12-12T15:12:22.907Z,36.30
2022-12-12T15:13:28.950Z,36.00
2022-12-12T15:14:39.157Z,36.04
2022-12-12T15:15:46.609Z,34.56
2022-12-12T15:17:02.027Z,33.65
2022-12-12T15:18:08.303Z,34.79
2022-12-12T15:19:21.496Z,34.85
2022-12-12T15:20:33.035Z,35.75
2022-12-12T15:21:36.690Z,35.75
2022-12-12T15:22:58.076Z,36.34
2022-12-12T15:24:04.142Z,36.21
2022-12-12T15:25:22.733Z,36.90
2022-12-12T15:26:30.256Z,36.73
2022-12-12T15:27:49.374Z,35.13
2022-12-12T15:29:00.792Z,35.75
2022-12-12T15:30:23.977Z,35.37
2022-12-12T15:31:30.997Z,37.30
2022-12-12T15:32:37.278Z,36.93
2022-12-12T15:33:40.795Z,38.11
2022-12-12T15:34:51.463Z,39.01
2022-12-12T15:36:02.263Z,39.10
2022-12-12T15:37:27.885Z,39.21
2022-12-12T15:38:36.653Z,40.15
2022-12-12T15:39:42.873Z,40.02
2022-12-12T15:40:55.061Z,39.83
2022-12-12T15:41:58.666Z,39.58
2022-12-12T15:43:09.438Z,40.07
2022-12-12T15:44:23.897Z,37.67
2022-12-12T15:45:38.919Z,38.22